Time;durP1;ratioP1;P1;durP2;ratioP2;P2;SDS_P1;SDS_P2;PMS_P1;PMS_P2;Temp;Humidity;BMP_temperature;BMP_pressure;BME280_temperature;BME280_humidity;BME280_pressure;Samples;Min_cycle;Max_cycle;Signal;HPM_P1;HPM_P2
2021/04/08 00:00:21;;;;;;;;;;;;;;;-1.19;100.00;96210.66;1030052;28;19922;-68
2021/04/08 00:00:51;;;;;;;;;;;;;;;-1.19;100.00;96207.28;1039480;28;19912;-67
2021/04/08 00:01:21;;;;;;;;;;;;;;;-1.22;100.00;96208.44;1048523;28;20436;-67
2021/04/08 00:01:52;;;;;;;;;;;;;;;-1.21;100.00;96210.06;1048058;28;19916;-67
2021/04/08 00:02:22;;;;;;;;;;;;;;;-1.21;100.00;96207.47;1040346;28;20042;-68
2021/04/08 00:02:52;;;;;;;;;;;;;;;-1.22;100.00;96213.59;1039299;28;19916;-69
2021/04/08 00:03:23;;;;;;;;;;;;;;;-1.22;100.00;96205.88;1032174;28;19918;-67
2021/04/08 00:03:53;;;;;;;;;;;;;;;-1.23;100.00;96200.91;1028409;28;20482;-68
2021/04/08 00:04:23;;;;;;;;;;;;;;;-1.24;100.00;96212.97;1031246;28;19910;-68
2021/04/08 00:04:54;;;;;;;;;;;;;;;-1.24;100.00;96201.84;1026598;28;19953;-70
2021/04/08 00:05:24;;;;;;;;;;;;;;;-1.24;100.00;96207.84;1035997;28;19905;-67
2021/04/08 00:05:54;;;;;;;;;;;;;;;-1.22;100.00;96210.22;1036748;28;20393;-67
2021/04/08 00:06:25;;;;;;;;;;;;;;;-1.21;100.00;96206.66;1030381;28;19910;-66
2021/04/08 00:06:55;;;;;;;;;;;;;;;-1.22;100.00;96210.22;1031373;28;19969;-68
2021/04/08 00:07:25;;;;;;;;;;;;;;;-1.22;100.00;96210.22;1032141;28;19906;-67
2021/04/08 00:07:56;;;;;;;;;;;;;;;-1.22;100.00;96211.00;1032654;28;20546;-66
2021/04/08 00:08:26;;;;;;;;;;;;;;;-1.20;100.00;96208.28;1036844;28;19905;-66
2021/04/08 00:08:56;;;;;;;;;;;;;;;-1.20;100.00;96203.13;1035046;28;19902;-67
2021/04/08 00:09:27;;;;;;;;;;;;;;;-1.20;100.00;96211.66;1040471;28;19935;-67
2021/04/08 00:09:57;;;;;;;;;;;;;;;-1.20;100.00;96219.38;1036592;28;20445;-67
2021/04/08 00:10:27;;;;;;;;;;;;;;;-1.20;100.00;96214.22;1027132;28;19910;-68
2021/04/08 00:10:58;;;;;;;;;;;;;;;-1.20;100.00;96214.22;1030589;28;19910;-68
2021/04/08 00:11:28;;;;;;;;;;;;;;;-1.20;100.00;96214.22;1026984;28;19906;-67
2021/04/08 00:11:58;;;;;;;;;;;;;;;-1.21;100.00;96214.38;1028510;28;19913;-68
2021/04/08 00:12:29;;;;;;;;;;;;;;;-1.20;100.00;96208.28;1038881;28;20432;-67
2021/04/08 00:12:59;;;;;;;;;;;;;;;-1.21;100.00;96215.22;1038510;28;19905;-67
2021/04/08 00:13:29;;;;;;;;;;;;;;;-1.21;100.00;96214.38;1033990;28;19913;-67
2021/04/08 00:14:00;;;;;;;;;;;;;;;-1.22;100.00;96210.22;1031901;28;20371;-66
2021/04/08 00:14:30;;;;;;;;;;;;;;;-1.21;100.00;96216.97;1030363;28;19918;-69
2021/04/08 00:15:00;;;;;;;;;;;;;;;-1.21;100.00;96212.63;1029693;28;19972;-67
2021/04/08 00:15:31;;;;;;;;;;;;;;;-1.22;100.00;96216.16;1036031;28;20002;-67
2021/04/08 00:16:02;;;;;;;;;;;;;;;-1.20;100.00;96205.69;1040112;28;19920;-70
2021/04/08 00:16:32;;;;;;;;;;;;;;;-1.18;100.00;96216.59;1042850;28;19916;-67
2021/04/08 00:17:02;;;;;;;;;;;;;;;-1.20;100.00;96216.00;1037550;28;19924;-66
2021/04/08 00:17:32;;;;;;;;;;;;;;;-1.21;100.00;96215.22;1040301;28;19916;-69
2021/04/08 00:18:03;;;;;;;;;;;;;;;-1.19;100.00;96215.81;1040128;28;19912;-68
2021/04/08 00:18:33;;;;;;;;;;;;;;;-1.18;100.00;96216.59;1037468;28;19920;-67
2021/04/08 00:19:06;;;;;;;;;;;;;;;-1.17;100.00;96217.41;1035503;28;19913;-67
2021/04/08 00:19:36;;;;;;;;;;;;;;;-1.17;100.00;96225.13;1032450;28;20458;-66
2021/04/08 00:20:17;;;;;;;;;;;;;;;-1.15;100.00;96218.03;1035482;28;19918;-67
2021/04/08 00:20:48;;;;;;;;;;;;;;;-1.13;100.00;96213.53;1025959;28;19937;-67
2021/04/08 00:21:18;;;;;;;;;;;;;;;-1.12;100.00;96222.84;1030613;28;20407;-67
2021/04/08 00:21:49;;;;;;;;;;;;;;;-1.13;100.00;96214.31;1035577;28;20001;-68
2021/04/08 00:22:19;;;;;;;;;;;;;;;-1.12;100.00;96222.84;1031457;28;19917;-67
2021/04/08 00:22:49;;;;;;;;;;;;;;;-1.12;100.00;96220.25;1034714;28;20015;-66
2021/04/08 00:23:20;;;;;;;;;;;;;;;-1.11;100.00;96220.06;1035498;28;19924;-67
2021/04/08 00:23:50;;;;;;;;;;;;;;;-1.13;100.00;96221.25;1032529;28;20013;-68
2021/04/08 00:24:21;;;;;;;;;;;;;;;-1.11;100.00;96229.56;1039458;28;19909;-67
2021/04/08 00:24:51;;;;;;;;;;;;;;;-1.11;100.00;96219.28;1038614;28;20028;-67
2021/04/08 00:25:22;;;;;;;;;;;;;;;-1.10;100.00;96223.47;1035805;28;19923;-69
2021/04/08 00:25:52;;;;;;;;;;;;;;;-1.07;100.00;96220.53;1044508;28;19956;-65
2021/04/08 00:26:22;;;;;;;;;;;;;;;-1.09;100.00;96222.47;1034595;28;20382;-66
2021/04/08 00:26:53;;;;;;;;;;;;;;;-1.08;100.00;96226.66;1035855;28;19972;-68
2021/04/08 00:27:23;;;;;;;;;;;;;;;-1.11;100.00;96220.06;1038225;28;19917;-68
2021/04/08 00:27:53;;;;;;;;;;;;;;;-1.11;100.00;96224.41;1039977;28;20345;-68
2021/04/08 00:28:23;;;;;;;;;;;;;;;-1.12;100.00;96222.84;1032138;28;20245;-67
2021/04/08 00:28:54;;;;;;;;;;;;;;;-1.12;100.00;96220.25;1035085;28;20004;-67
2021/04/08 00:29:24;;;;;;;;;;;;;;;-1.12;100.00;96220.25;1031780;28;19924;-68
2021/04/08 00:29:54;;;;;;;;;;;;;;;-1.13;100.00;96223.81;1036267;28;19924;-69
2021/04/08 00:30:25;;;;;;;;;;;;;;;-1.13;100.00;96221.25;1030253;28;19917;-68
2021/04/08 00:30:55;;;;;;;;;;;;;;;-1.14;100.00;96220.44;1027220;28;19918;-68
2021/04/08 00:31:25;;;;;;;;;;;;;;;-1.15;100.00;96228.34;1031170;28;19913;-68
2021/04/08 00:31:56;;;;;;;;;;;;;;;-1.16;100.00;96219.03;1028153;28;19910;-69
2021/04/08 00:32:26;;;;;;;;;;;;;;;-1.19;100.00;96223.53;1030696;28;19952;-67
2021/04/08 00:32:56;;;;;;;;;;;;;;;-1.19;100.00;96218.38;1034980;28;19913;-68
2021/04/08 00:33:27;;;;;;;;;;;;;;;-1.19;100.00;96215.81;1031830;28;20177;-69
2021/04/08 00:33:57;;;;;;;;;;;;;;;-1.19;100.00;96226.09;1028625;28;20314;-67
2021/04/08 00:34:27;;;;;;;;;;;;;;;-1.21;100.00;96217.78;1029977;28;20642;-69
2021/04/08 00:34:58;;;;;;;;;;;;;;;-1.21;100.00;96216.97;1027495;28;19910;-68
2021/04/08 00:35:28;;;;;;;;;;;;;;;-1.22;100.00;96220.50;1036114;28;19971;-68
2021/04/08 00:35:58;;;;;;;;;;;;;;;-1.23;100.00;96219.72;1036362;28;19909;-67
2021/04/08 00:36:29;;;;;;;;;;;;;;;-1.23;100.00;96217.16;1029372;28;19956;-66
2021/04/08 00:36:59;;;;;;;;;;;;;;;-1.22;100.00;96213.59;1044165;28;19913;-69
2021/04/08 00:37:30;;;;;;;;;;;;;;;-1.24;100.00;96220.69;1043782;28;20347;-66
2021/04/08 00:38:00;;;;;;;;;;;;;;;-1.23;100.00;96219.72;1042210;28;20011;-65
2021/04/08 00:38:30;;;;;;;;;;;;;;;-1.22;100.00;96213.59;1041492;28;19925;-67
2021/04/08 00:39:01;;;;;;;;;;;;;;;-1.21;100.00;96219.53;1034994;28;19948;-65
2021/04/08 00:39:31;;;;;;;;;;;;;;;-1.21;100.00;96215.22;1032096;28;20008;-67
2021/04/08 00:40:04;;;;;;;;;;;;;;;-1.20;100.00;96210.84;1032217;28;19913;-68
2021/04/08 00:40:35;;;;;;;;;;;;;;;-1.21;100.00;96217.78;1030115;28;20210;-69
2021/04/08 00:41:05;;;;;;;;;;;;;;;-1.21;100.00;96220.34;1031645;28;19909;-68
2021/04/08 00:41:35;;;;;;;;;;;;;;;-1.23;100.00;96219.72;1035721;28;20390;-66
2021/04/08 00:42:06;;;;;;;;;;;;;;;-1.20;100.00;96214.22;1034494;28;20421;-66
2021/04/08 00:42:36;;;;;;;;;;;;;;;-1.19;100.00;96215.00;1034459;28;20393;-66
2021/04/08 00:43:06;;;;;;;;;;;;;;;-1.19;100.00;96220.97;1039065;28;20370;-66
2021/04/08 00:43:37;;;;;;;;;;;;;;;-1.20;100.00;96211.66;1044444;28;19909;-68
2021/04/08 00:44:07;;;;;;;;;;;;;;;-1.15;100.00;96216.25;1032219;28;19917;-68
2021/04/08 00:44:37;;;;;;;;;;;;;;;-1.15;100.00;96207.72;1027366;28;19914;-69
2021/04/08 00:45:08;;;;;;;;;;;;;;;-1.16;100.00;96211.28;1018339;28;20396;-69
2021/04/08 00:45:38;;;;;;;;;;;;;;;-1.16;100.00;96213.88;1031978;28;20404;-68
2021/04/08 00:46:09;;;;;;;;;;;;;;;-1.17;100.00;96204.53;1032556;28;19916;-68
2021/04/08 00:46:39;;;;;;;;;;;;;;;-1.17;100.00;96207.09;1030529;28;19920;-65
2021/04/08 00:47:09;;;;;;;;;;;;;;;-1.17;100.00;96209.69;1036248;28;20688;-68
2021/04/08 00:47:40;;;;;;;;;;;;;;;-1.17;100.00;96212.25;1032147;28;20041;-66
2021/04/08 00:48:10;;;;;;;;;;;;;;;-1.16;100.00;96213.88;1036112;28;19909;-68
2021/04/08 00:48:40;;;;;;;;;;;;;;;-1.17;100.00;96212.25;1040502;28;19909;-65
2021/04/08 00:49:11;;;;;;;;;;;;;;;-1.18;100.00;96214.03;1038044;28;19909;-67
2021/04/08 00:49:41;;;;;;;;;;;;;;;-1.18;100.00;96214.03;1040159;28;19912;-66
2021/04/08 00:50:12;;;;;;;;;;;;;;;-1.18;100.00;96211.47;1035928;28;19905;-66
2021/04/08 00:50:42;;;;;;;;;;;;;;;-1.20;100.00;96209.06;1028266;28;19913;-68
2021/04/08 00:51:12;;;;;;;;;;;;;;;-1.17;100.00;96212.25;1025898;28;19921;-65
2021/04/08 00:51:43;;;;;;;;;;;;;;;-1.17;100.00;96207.09;1030996;28;19909;-68
2021/04/08 00:52:13;;;;;;;;;;;;;;;-1.19;100.00;96208.09;1036344;28;19929;-69
2021/04/08 00:52:45;;;;;;;;;;;;;;;-1.17;100.00;96207.09;1044885;28;19932;-67
2021/04/08 00:53:16;;;;;;;;;;;;;;;-1.17;100.00;96209.69;1037872;28;20451;-66
2021/04/08 00:53:46;;;;;;;;;;;;;;;-1.19;100.00;96210.66;1039804;28;19916;-67
2021/04/08 00:54:16;;;;;;;;;;;;;;;-1.20;100.00;96213.44;1040402;28;20512;-66
2021/04/08 00:54:47;;;;;;;;;;;;;;;-1.21;100.00;96212.63;1036592;28;20308;-67
2021/04/08 00:55:18;;;;;;;;;;;;;;;-1.22;100.00;96211.00;1029744;28;19915;-67
2021/04/08 00:55:50;;;;;;;;;;;;;;;-1.21;100.00;96214.38;1027713;28;20413;-67
2021/04/08 00:56:21;;;;;;;;;;;;;;;-1.21;100.00;96211.81;1028939;28;19925;-67
2021/04/08 00:56:51;;;;;;;;;;;;;;;-1.20;100.00;96216.00;1032069;28;19902;-67
2021/04/08 00:57:21;;;;;;;;;;;;;;;-1.27;100.00;96203.03;1028138;28;19906;-69
2021/04/08 00:57:53;;;;;;;;;;;;;;;-1.22;100.00;96216.16;1035481;28;19917;-67
2021/04/08 00:58:23;;;;;;;;;;;;;;;-1.21;100.00;96217.78;1031961;28;19972;-68
2021/04/08 00:58:53;;;;;;;;;;;;;;;-1.22;100.00;96213.59;1032694;28;20375;-68
2021/04/08 00:59:24;;;;;;;;;;;;;;;-1.19;100.00;96210.66;1030270;28;19933;-67
2021/04/08 00:59:54;;;;;;;;;;;;;;;-1.20;100.00;96211.66;1031091;28;20349;-69
2021/04/08 01:00:25;;;;;;;;;;;;;;;-1.20;100.00;96216.78;1031828;28;20318;-67
2021/04/08 01:00:55;;;;;;;;;;;;;;;-1.16;100.00;96213.88;1032304;28;19910;-67
2021/04/08 01:01:26;;;;;;;;;;;;;;;-1.16;100.00;96213.88;1030858;28;19906;-68
2021/04/08 01:01:56;;;;;;;;;;;;;;;-1.16;100.00;96217.25;1029951;28;20323;-68
2021/04/08 01:02:26;;;;;;;;;;;;;;;-1.16;100.00;96216.44;1031993;28;19905;-68
2021/04/08 01:02:57;;;;;;;;;;;;;;;-1.15;100.00;96215.47;1031120;28;20310;-67
2021/04/08 01:03:27;;;;;;;;;;;;;;;-1.16;100.00;96216.44;1030200;28;20693;-67
2021/04/08 01:03:58;;;;;;;;;;;;;;;-1.15;100.00;96225.75;1029345;28;19968;-67
2021/04/08 01:04:28;;;;;;;;;;;;;;;-1.15;100.00;96221.41;1031561;28;19917;-68
2021/04/08 01:04:58;;;;;;;;;;;;;;;-1.15;100.00;96221.41;1031640;28;19914;-68
2021/04/08 01:05:29;;;;;;;;;;;;;;;-1.12;100.00;96217.69;1027369;28;19921;-67
2021/04/08 01:05:59;;;;;;;;;;;;;;;-1.11;100.00;96219.28;1028910;28;19991;-68
2021/04/08 01:06:30;;;;;;;;;;;;;;;-1.09;100.00;96227.63;1031562;28;19921;-68
2021/04/08 01:07:00;;;;;;;;;;;;;;;-1.09;100.00;96219.91;1028412;28;20045;-68
2021/04/08 01:07:33;;;;;;;;;;;;;;;-1.29;100.00;96188.75;1031840;28;20303;-68
2021/04/08 01:08:03;;;;;;;;;;;;;;;-1.11;100.00;96229.56;1025203;28;20024;-66
2021/04/08 01:08:34;;;;;;;;;;;;;;;-1.08;100.00;96221.50;1027601;28;19939;-67
2021/04/08 01:09:05;;;;;;;;;;;;;;;-1.09;100.00;96228.44;1028117;28;19914;-71
2021/04/08 01:09:35;;;;;;;;;;;;;;;-1.11;100.00;96227.78;1032282;28;19913;-69
2021/04/08 01:10:06;;;;;;;;;;;;;;;-1.10;100.00;96221.69;1037046;28;19919;-69
2021/04/08 01:10:37;;;;;;;;;;;;;;;-1.10;100.00;96226.84;1034496;28;19929;-68
2021/04/08 01:11:07;;;;;;;;;;;;;;;-1.08;100.00;96224.06;1035548;28;20325;-68
2021/04/08 01:11:38;;;;;;;;;;;;;;;-1.08;100.00;96222.28;1038925;28;19963;-67
2021/04/08 01:12:08;;;;;;;;;;;;;;;-1.07;100.00;96225.69;1038394;28;19917;-67
2021/04/08 01:12:39;;;;;;;;;;;;;;;-1.07;100.00;96225.69;1033673;28;20024;-69
2021/04/08 01:13:09;;;;;;;;;;;;;;;-1.08;100.00;96222.28;1035207;28;20440;-68
2021/04/08 01:13:40;;;;;;;;;;;;;;;-1.09;100.00;96219.91;1031940;28;20468;-68
2021/04/08 01:14:10;;;;;;;;;;;;;;;-1.09;100.00;96225.84;1026421;28;19910;-65
2021/04/08 01:14:40;;;;;;;;;;;;;;;-1.06;100.00;96224.69;1026442;28;19965;-66
2021/04/08 01:15:11;;;;;;;;;;;;;;;-1.06;100.00;96220.34;1027259;28;19910;-67
2021/04/08 01:15:41;;;;;;;;;;;;;;;-1.07;100.00;96217.97;1027573;28;19996;-67
2021/04/08 01:16:13;;;;;;;;;;;;;;;-1.05;100.00;96226.28;1026668;28;19910;-68
2021/04/08 01:16:48;;;;;;;;;;;;;;;-1.05;100.00;96226.28;1022359;28;20335;-68
2021/04/08 01:17:22;;;;;;;;;;;;;;;-1.05;100.00;96226.28;1031976;28;19906;-69
2021/04/08 01:17:53;;;;;;;;;;;;;;;-1.06;100.00;96224.69;1036026;28;20425;-67
2021/04/08 01:18:32;;;;;;;;;;;;;;;-1.06;100.00;96228.06;1025903;28;19941;-67
2021/04/08 01:19:21;;;;;;;;;;;;;;;-1.06;100.00;96222.13;1024518;28;19906;-69
2021/04/08 01:20:00;;;;;;;;;;;;;;;-1.05;100.00;96229.66;1027969;28;19910;-67
2021/04/08 01:20:49;;;;;;;;;;;;;;;-1.05;100.00;96226.28;1029773;28;19924;-69
2021/04/08 01:21:23;;;;;;;;;;;;;;;-1.04;100.00;96222.72;1039640;28;19909;-67
2021/04/08 01:21:59;;;;;;;;;;;;;;;-1.05;100.00;96226.28;1039092;28;19905;-69
2021/04/08 01:22:45;;;;;;;;;;;;;;;-1.06;100.00;96229.84;1036498;28;20003;-67
2021/04/08 01:23:15;;;;;;;;;;;;;;;-1.03;100.00;96230.28;1036160;28;19975;-68
2021/04/08 01:23:55;;;;;;;;;;;;;;;-1.04;100.00;96230.47;1035772;28;20481;-66
2021/04/08 01:24:31;;;;;;;;;;;;;;;-1.03;100.00;96234.66;1046784;28;20325;-68
2021/04/08 01:25:20;;;;;;;;;;;;;;;-1.01;100.00;96235.25;1041804;28;19970;-70
2021/04/08 01:26:10;;;;;;;;;;;;;;;-1.02;100.00;96236.25;1043627;28;19909;-69
2021/04/08 01:26:58;;;;;;;;;;;;;;;-1.03;100.00;96229.50;1034558;28;19909;-67
2021/04/08 01:27:49;;;;;;;;;;;;;;;-1.00;100.00;96236.88;1034586;28;20097;-68
2021/04/08 01:28:29;;;;;;;;;;;;;;;-1.00;100.00;96242.81;1035060;28;19913;-67
2021/04/08 01:29:07;;;;;;;;;;;;;;;-0.99;100.00;96244.41;1033122;28;20367;-67
2021/04/08 01:29:37;;;;;;;;;;;;;;;-0.98;100.00;96245.22;1035499;28;19909;-67
2021/04/08 01:30:09;;;;;;;;;;;;;;;-0.99;100.00;96247.00;1035876;28;20032;-68
2021/04/08 01:30:49;;;;;;;;;;;;;;;-1.00;100.00;96239.44;1029599;28;20012;-67
2021/04/08 01:31:19;;;;;;;;;;;;;;;-0.97;100.00;96239.09;1031966;28;19910;-68
2021/04/08 01:31:49;;;;;;;;;;;;;;;-1.00;100.00;96244.59;1030925;28;20375;-66
2021/04/08 01:32:20;;;;;;;;;;;;;;;-1.02;100.00;96246.53;1034426;28;19910;-68
2021/04/08 01:32:51;;;;;;;;;;;;;;;-1.02;100.00;96246.53;1036401;28;19917;-68
2021/04/08 01:33:25;;;;;;;;;;;;;;;-1.06;100.00;96240.94;1038762;28;19948;-67
2021/04/08 01:33:57;;;;;;;;;;;;;;;-1.00;100.00;96247.19;1039724;28;19936;-68
2021/04/08 01:34:27;;;;;;;;;;;;;;;-1.04;100.00;96243.34;1040502;28;19905;-68
2021/04/08 01:34:58;;;;;;;;;;;;;;;-1.07;100.00;96248.88;1037158;28;20686;-67
2021/04/08 01:35:29;;;;;;;;;;;;;;;-1.06;100.00;96251.25;1034511;28;19909;-69
2021/04/08 01:36:04;;;;;;;;;;;;;;;-1.05;100.00;96246.91;1027378;28;19913;-66
2021/04/08 01:36:34;;;;;;;;;;;;;;;-1.05;100.00;96246.91;1019758;28;20036;-68
2021/04/08 01:37:06;;;;;;;;;;;;;;;-1.08;100.00;96250.63;1025033;28;20010;-66
2021/04/08 01:37:41;;;;;;;;;;;;;;;-1.08;100.00;96249.81;1027595;28;19972;-67
2021/04/08 01:38:32;;;;;;;;;;;;;;;-1.09;100.00;96245.66;1030356;28;20349;-68
2021/04/08 01:39:04;;;;;;;;;;;;;;;-1.09;100.00;96256.75;1025711;28;19988;-67
2021/04/08 01:39:34;;;;;;;;;;;;;;;-1.08;100.00;96248.03;1025759;28;19965;-68
2021/04/08 01:40:05;;;;;;;;;;;;;;;-1.09;100.00;96251.59;1030380;28;19968;-67
2021/04/08 01:40:36;;;;;;;;;;;;;;;-1.09;100.00;96248.22;1036515;28;19987;-68
2021/04/08 01:41:06;;;;;;;;;;;;;;;-1.04;100.00;96256.22;1038453;28;19905;-68
2021/04/08 01:41:37;;;;;;;;;;;;;;;-1.06;100.00;96253.81;1029202;28;19910;-66
2021/04/08 01:42:07;;;;;;;;;;;;;;;-1.10;100.00;96260.31;1022897;28;19969;-68
2021/04/08 01:42:38;;;;;;;;;;;;;;;-1.08;100.00;96260.13;1023804;28;20633;-67
2021/04/08 01:43:08;;;;;;;;;;;;;;;-1.07;100.00;96261.75;1031297;28;19960;-67
2021/04/08 01:43:39;;;;;;;;;;;;;;;-1.06;100.00;96255.59;1033241;28;19920;-69
2021/04/08 01:44:10;;;;;;;;;;;;;;;-1.09;100.00;96263.69;1039346;28;20752;-67
2021/04/08 01:44:40;;;;;;;;;;;;;;;-1.09;100.00;96258.53;1031481;28;19937;-67
2021/04/08 01:45:11;;;;;;;;;;;;;;;-1.08;100.00;96260.13;1031646;28;20365;-67
2021/04/08 01:45:41;;;;;;;;;;;;;;;-1.09;100.00;96261.09;1028949;28;19916;-67
2021/04/08 01:46:12;;;;;;;;;;;;;;;-1.09;100.00;96258.53;1026777;28;20012;-68
2021/04/08 01:46:43;;;;;;;;;;;;;;;-1.08;100.00;96257.53;1031654;28;20446;-66
2021/04/08 01:47:13;;;;;;;;;;;;;;;-1.08;100.00;96260.13;1027585;28;20000;-69
2021/04/08 01:47:44;;;;;;;;;;;;;;;-1.12;100.00;96262.25;1025186;28;20518;-67
2021/04/08 01:48:14;;;;;;;;;;;;;;;-1.14;100.00;96268.53;1035403;28;19906;-68
2021/04/08 01:48:45;;;;;;;;;;;;;;;-1.14;100.00;96263.38;1031726;28;19964;-70
2021/04/08 01:49:16;;;;;;;;;;;;;;;-1.15;100.00;96266.94;1031717;28;20366;-66
2021/04/08 01:49:46;;;;;;;;;;;;;;;-1.24;100.00;96263.63;1026628;28;19977;-68
2021/04/08 01:50:17;;;;;;;;;;;;;;;-1.23;100.00;96263.47;1027419;28;19929;-68
2021/04/08 01:50:47;;;;;;;;;;;;;;;-1.23;100.00;96266.06;1027801;28;19953;-69
2021/04/08 01:51:18;;;;;;;;;;;;;;;-1.20;100.00;96270.06;1024083;28;19917;-67
2021/04/08 01:51:48;;;;;;;;;;;;;;;-1.23;100.00;96266.06;1029425;28;20499;-68
2021/04/08 01:52:18;;;;;;;;;;;;;;;-1.26;100.00;96271.56;1035369;28;20377;-67
2021/04/08 01:52:49;;;;;;;;;;;;;;;-1.25;100.00;96268.00;1035551;28;19909;-68
2021/04/08 01:53:19;;;;;;;;;;;;;;;-1.26;100.00;96271.56;1038057;28;19978;-68
2021/04/08 01:53:50;;;;;;;;;;;;;;;-1.29;100.00;96266.75;1033958;28;19913;-67
2021/04/08 01:54:20;;;;;;;;;;;;;;;-1.27;100.00;96274.31;1034796;28;20011;-67
2021/04/08 01:54:53;;;;;;;;;;;;;;;-1.29;100.00;96264.19;1035719;28;20849;-67
2021/04/08 01:55:23;;;;;;;;;;;;;;;-1.32;100.00;96272.25;1035870;28;19910;-68
2021/04/08 01:55:56;;;;;;;;;;;;;;;-1.32;100.00;96267.09;1034464;28;19909;-68
2021/04/08 01:56:33;;;;;;;;;;;;;;;-1.33;100.00;96275.81;1030486;28;20267;-67
2021/04/08 01:57:04;;;;;;;;;;;;;;;-1.29;100.00;96273.69;1032571;28;19909;-66
2021/04/08 01:57:36;;;;;;;;;;;;;;;-1.34;100.00;96274.22;1037247;28;20387;-69
2021/04/08 01:58:06;;;;;;;;;;;;;;;-1.38;100.00;96283.22;1033247;28;19909;-66
2021/04/08 01:58:37;;;;;;;;;;;;;;;-1.36;100.00;96276.16;1030516;28;20838;-68
2021/04/08 01:59:07;;;;;;;;;;;;;;;-1.32;100.00;96276.59;1031516;28;19996;-68
2021/04/08 01:59:37;;;;;;;;;;;;;;;-1.34;100.00;96276.78;1027851;28;19910;-68
2021/04/08 02:00:08;;;;;;;;;;;;;;;-1.36;100.00;96278.72;1026119;28;19921;-68
2021/04/08 02:00:39;;;;;;;;;;;;;;;-1.40;100.00;96274.91;1029579;28;19914;-67
2021/04/08 02:01:09;;;;;;;;;;;;;;;-1.36;100.00;96276.16;1031480;28;20233;-66
2021/04/08 02:01:40;;;;;;;;;;;;;;;-1.40;100.00;96277.47;1035134;28;19949;-67
2021/04/08 02:02:11;;;;;;;;;;;;;;;-1.38;100.00;96280.66;1035568;28;20263;-65
2021/04/08 02:02:43;;;;;;;;;;;;;;;-1.39;100.00;96278.28;1032997;28;20235;-66
2021/04/08 02:03:14;;;;;;;;;;;;;;;-1.48;100.00;96275.75;1031479;28;20340;-67
2021/04/08 02:03:44;;;;;;;;;;;;;;;-1.45;100.00;96272.84;1031478;28;19918;-67
2021/04/08 02:04:14;;;;;;;;;;;;;;;-1.47;100.00;96284.31;1035489;28;19917;-67
2021/04/08 02:04:45;;;;;;;;;;;;;;;-1.48;100.00;96273.19;1029190;28;19976;-66
2021/04/08 02:05:15;;;;;;;;;;;;;;;-1.46;100.00;96285.88;1034612;28;19960;-67
2021/04/08 02:05:46;;;;;;;;;;;;;;;-1.47;100.00;96284.31;1027612;28;19956;-66
2021/04/08 02:06:16;;;;;;;;;;;;;;;-1.48;100.00;96274.97;1023512;28;19910;-68
2021/04/08 02:06:47;;;;;;;;;;;;;;;-1.51;100.00;96280.44;1025501;28;19922;-67
2021/04/08 02:07:17;;;;;;;;;;;;;;;-1.50;100.00;96282.88;1028072;28;19997;-68
2021/04/08 02:07:48;;;;;;;;;;;;;;;-1.50;100.00;96276.94;1029045;28;19941;-66
2021/04/08 02:08:18;;;;;;;;;;;;;;;-1.54;100.00;96273.91;1027943;28;20451;-67
2021/04/08 02:08:49;;;;;;;;;;;;;;;-1.52;100.00;96276.28;1020313;28;19919;-69
2021/04/08 02:09:20;;;;;;;;;;;;;;;-1.55;100.00;96274.06;1024540;28;20077;-68
2021/04/08 02:09:50;;;;;;;;;;;;;;;-1.53;100.00;96285.00;1028916;28;19910;-66
2021/04/08 02:10:21;;;;;;;;;;;;;;;-1.51;100.00;96285.59;1027704;28;19965;-69
2021/04/08 02:10:51;;;;;;;;;;;;;;;-1.53;100.00;96274.69;1026967;28;19910;-68
2021/04/08 02:11:21;;;;;;;;;;;;;;;-1.51;100.00;96288.16;1028698;28;20415;-68
2021/04/08 02:11:52;;;;;;;;;;;;;;;-1.54;100.00;96280.78;1031964;28;19950;-67
2021/04/08 02:12:22;;;;;;;;;;;;;;;-1.58;100.00;96277.78;1036370;28;19916;-67
2021/04/08 02:12:52;;;;;;;;;;;;;;;-1.52;100.00;96282.22;1029107;28;20367;-68
2021/04/08 02:13:23;;;;;;;;;;;;;;;-1.59;100.00;96280.53;1026599;28;19953;-67
2021/04/08 02:13:54;;;;;;;;;;;;;;;-1.63;100.00;96279.28;1027790;28;19963;-68
2021/04/08 02:14:24;;;;;;;;;;;;;;;-1.60;100.00;96278.94;1031374;28;19902;-66
2021/04/08 02:14:54;;;;;;;;;;;;;;;-1.62;100.00;96280.88;1028648;28;19912;-67
2021/04/08 02:15:25;;;;;;;;;;;;;;;-1.62;100.00;96280.88;1022953;29;19906;-68
2021/04/08 02:15:55;;;;;;;;;;;;;;;-1.61;100.00;96277.31;1027564;28;19906;-68
2021/04/08 02:16:25;;;;;;;;;;;;;;;-1.80;100.00;96255.44;1022785;28;19938;-66
2021/04/08 02:16:56;;;;;;;;;;;;;;;-1.62;100.00;96289.38;1025410;28;19945;-68
2021/04/08 02:17:26;;;;;;;;;;;;;;;-1.64;100.00;96282.81;1027113;28;19906;-67
2021/04/08 02:17:57;;;;;;;;;;;;;;;-1.65;100.00;96282.00;1023550;28;19906;-68
2021/04/08 02:18:28;;;;;;;;;;;;;;;-1.61;100.00;96287.59;1027269;28;19906;-67
2021/04/08 02:18:58;;;;;;;;;;;;;;;-1.64;100.00;96282.81;1032843;28;20842;-69
2021/04/08 02:19:28;;;;;;;;;;;;;;;-1.64;100.00;96287.94;1027055;28;19906;-66
2021/04/08 02:19:59;;;;;;;;;;;;;;;-1.66;100.00;96283.78;1031618;28;19909;-67
2021/04/08 02:20:30;;;;;;;;;;;;;;;-1.64;100.00;96275.09;1031267;28;19944;-67
2021/04/08 02:21:00;;;;;;;;;;;;;;;-1.68;100.00;96283.19;1025193;28;20322;-67
2021/04/08 02:21:30;;;;;;;;;;;;;;;-1.66;100.00;96283.78;1030726;28;19922;-67
2021/04/08 02:22:01;;;;;;;;;;;;;;;-1.66;100.00;96286.34;1035071;28;19905;-69
2021/04/08 02:22:32;;;;;;;;;;;;;;;-1.67;100.00;96284.75;1039779;28;20012;-69
2021/04/08 02:23:03;;;;;;;;;;;;;;;-1.64;100.00;96285.38;1032828;28;19973;-68
2021/04/08 02:23:33;;;;;;;;;;;;;;;-1.67;100.00;96284.75;1032873;28;19935;-66
2021/04/08 02:24:04;;;;;;;;;;;;;;;-1.64;100.00;96283.63;1035264;28;20397;-67
2021/04/08 02:24:34;;;;;;;;;;;;;;;-1.66;100.00;96276.06;1031592;28;20267;-67
2021/04/08 02:25:06;;;;;;;;;;;;;;;-1.62;100.00;96281.66;1028665;28;20440;-67
2021/04/08 02:25:36;;;;;;;;;;;;;;;-1.61;100.00;96287.59;1035095;28;19910;-69
2021/04/08 02:26:08;;;;;;;;;;;;;;;-1.64;100.00;96283.63;1031530;28;19993;-66
2021/04/08 02:26:44;;;;;;;;;;;;;;;-1.67;100.00;96289.91;1031193;28;20260;-66
2021/04/08 02:27:14;;;;;;;;;;;;;;;-1.66;100.00;96293.28;1026579;28;20539;-69
2021/04/08 02:27:45;;;;;;;;;;;;;;;-1.69;100.00;96288.47;1027286;28;19906;-67
2021/04/08 02:28:15;;;;;;;;;;;;;;;-1.63;100.00;96289.56;1024371;28;19922;-66
2021/04/08 02:28:46;;;;;;;;;;;;;;;-1.63;100.00;96285.22;1019079;28;19989;-66
2021/04/08 02:29:17;;;;;;;;;;;;;;;-1.65;100.00;96292.31;1024848;28;19910;-68
2021/04/08 02:29:47;;;;;;;;;;;;;;;-1.67;100.00;96289.91;1023508;28;19949;-68
2021/04/08 02:30:19;;;;;;;;;;;;;;;-1.64;100.00;96290.53;1027392;28;20326;-68
2021/04/08 02:30:49;;;;;;;;;;;;;;;-1.60;100.00;96289.22;1034946;28;20398;-68
2021/04/08 02:31:20;;;;;;;;;;;;;;;-1.60;100.00;96290.03;1029724;28;19905;-68
2021/04/08 02:31:50;;;;;;;;;;;;;;;-1.58;100.00;96289.84;1034294;28;19909;-68
2021/04/08 02:32:21;;;;;;;;;;;;;;;-1.57;100.00;96291.47;1029416;28;19929;-66
2021/04/08 02:32:51;;;;;;;;;;;;;;;-1.58;100.00;96292.41;1031580;28;19905;-65
2021/04/08 02:33:22;;;;;;;;;;;;;;;-1.59;100.00;96288.25;1024794;28;20318;-67
2021/04/08 02:33:53;;;;;;;;;;;;;;;-1.62;100.00;96291.16;1027766;28;19918;-69
2021/04/08 02:34:23;;;;;;;;;;;;;;;-1.62;100.00;96291.97;1039303;28;19920;-67
2021/04/08 02:34:53;;;;;;;;;;;;;;;-1.60;100.00;96295.16;1031556;28;20276;-68
2021/04/08 02:35:24;;;;;;;;;;;;;;;-1.60;100.00;96286.66;1029701;28;19913;-68
2021/04/08 02:35:54;;;;;;;;;;;;;;;-1.62;100.00;96298.88;1034495;28;19940;-67
2021/04/08 02:36:25;;;;;;;;;;;;;;;-1.64;100.00;96298.25;1031594;28;20454;-68
2021/04/08 02:36:55;;;;;;;;;;;;;;;-1.61;100.00;96300.47;1031344;28;19949;-65
2021/04/08 02:37:26;;;;;;;;;;;;;;;-1.63;100.00;96294.72;1031591;28;19988;-65
2021/04/08 02:37:56;;;;;;;;;;;;;;;-1.66;100.00;96296.66;1035095;28;19909;-68
2021/04/08 02:38:30;;;;;;;;;;;;;;;-1.63;100.00;96299.84;1027298;28;19906;-65
2021/04/08 02:39:00;;;;;;;;;;;;;;;-1.63;100.00;96299.84;1027166;28;19961;-65
2021/04/08 02:39:31;;;;;;;;;;;;;;;-1.65;100.00;96297.44;1021399;29;20534;-66
2021/04/08 02:40:02;;;;;;;;;;;;;;;-1.64;100.00;96298.25;1022065;29;19914;-68
2021/04/08 02:40:32;;;;;;;;;;;;;;;-1.66;100.00;96288.94;1018825;29;19907;-68
2021/04/08 02:41:03;;;;;;;;;;;;;;;-1.63;100.00;96294.72;1023346;28;19917;-67